CheckWX is a tool to help pilots better visualize weather data.  It is not intended as a substitute for an official pre-flight weather briefing.

08:33:44 UTC

KGUY METAR
Guymon Municipal Airport
Guymon, Oklahoma, USA
Current

41 mins ago

KGUY 230753Z AUTO 03006KT 10SM -RA OVC035 11/08 A3014 RMK AO2 RAE0656B22 SLP182 P0001 T01110078
Observed
Apr-23 @ 07:53 UTC
Wind
  • 030° at 6 KTS
Visibility
10 SM
Flight Rules
VFR
Conditions
Light Rain
Cloud Levels
  • Overcast at 3,500' AGL
Temperature
11°C / 52°F
Dewpoint
C / 46°F
Humidity
82%
Altimeter
30.14" Hg
Pressure
1020.62 hPa
Current Rain
0.01"
Previous

2 hours ago

KGUY 230653Z AUTO 04007KT 10SM -RA FEW048 BKN075 OVC120 11/08 A3015 RMK AO2 RAB31 SLP186 P0000 T01110078
Observed
Apr-23 @ 06:53 UTC
Wind
  • 040° at 7 KTS
Visibility
10 SM
Flight Rules
VFR
Conditions
Light Rain
Cloud Levels
  • Few at 4,800' AGL
  • Broken at 7,500' AGL
  • Overcast at 12,000' AGL
Temperature
11°C / 52°F
Dewpoint
C / 46°F
Humidity
82%
Altimeter
30.15" Hg
Pressure
1021.02 hPa
Current Rain
0.01"
Previous

3 hours ago

KGUY 230553Z AUTO 02009KT 10SM FEW070 SCT090 OVC110 12/08 A3013 RMK AO2 RAE11 SLP177 P0000 60005 T01170083 10167 20117 401780089 58004
Observed
Apr-23 @ 05:53 UTC
Wind
  • 020° at 9 KTS
Visibility
10 SM
Flight Rules
VFR
Cloud Levels
  • Few at 7,000' AGL
  • Scattered at 9,000' AGL
  • Overcast at 11,000' AGL
Temperature
12°C / 54°F
Dewpoint
C / 46°F
Humidity
77%
Altimeter
30.13" Hg
Pressure
1020.32 hPa
Current Rain
0.01"